createdAt,value
2018-05-27T00:00:29.491Z,99868.47
2018-05-27T00:01:00.669Z,99871.58
2018-05-27T00:01:31.851Z,99868.63
2018-05-27T00:02:03.079Z,99869.47
2018-05-27T00:02:34.267Z,99870.36
2018-05-27T00:03:05.460Z,99869.43
2018-05-27T00:03:36.691Z,99865.52
2018-05-27T00:04:07.877Z,99870.92
2018-05-27T00:04:39.060Z,99871.84
2018-05-27T00:05:10.241Z,99872.64
2018-05-27T00:05:41.431Z,99870.87
2018-05-27T00:06:12.641Z,99871.23
2018-05-27T00:06:43.821Z,99863.72
2018-05-27T00:07:15.041Z,99878.13
2018-05-27T00:07:46.229Z,99871.41
2018-05-27T00:08:17.412Z,99866.84
2018-05-27T00:08:48.592Z,99875.94
2018-05-27T00:09:19.778Z,99871.89
2018-05-27T00:09:50.963Z,99871.72
2018-05-27T00:10:22.152Z,99872.16
2018-05-27T00:10:53.386Z,99874.67
2018-05-27T00:11:24.589Z,99872.78
2018-05-27T00:11:55.781Z,99869.17
2018-05-27T00:12:26.969Z,99872.55
2018-05-27T00:12:58.163Z,99868.99
2018-05-27T00:13:29.361Z,99875.89
2018-05-27T00:14:00.552Z,99870.53
2018-05-27T00:14:31.745Z,99870.02
2018-05-27T00:15:02.940Z,99871.64
2018-05-27T00:15:34.150Z,99874.27
2018-05-27T00:16:05.379Z,99866.36
2018-05-27T00:16:36.564Z,99863.72
2018-05-27T00:17:07.751Z,99868.51
2018-05-27T00:17:39.257Z,99868.86
2018-05-27T00:18:10.445Z,99866.61
2018-05-27T00:18:41.626Z,99864.59
2018-05-27T00:19:12.809Z,99871.72
2018-05-27T00:19:43.991Z,99866.05
2018-05-27T00:20:15.174Z,99865.22
2018-05-27T00:20:46.349Z,99864.59
2018-05-27T00:21:17.570Z,99863.67
2018-05-27T00:21:48.748Z,99864.33
2018-05-27T00:22:19.933Z,99865.38
2018-05-27T00:22:51.185Z,99864.41
2018-05-27T00:23:22.364Z,99861.24
2018-05-27T00:23:53.545Z,99864.80
2018-05-27T00:24:24.736Z,99869.73
2018-05-27T00:24:55.917Z,99863.62
2018-05-27T00:25:27.141Z,99863.14
2018-05-27T00:25:58.330Z,99863.14
2018-05-27T00:26:29.553Z,99861.86
2018-05-27T00:27:00.733Z,99859.80
2018-05-27T00:27:31.917Z,99857.99
2018-05-27T00:28:03.106Z,99855.05
2018-05-27T00:28:34.292Z,99858.22
2018-05-27T00:29:05.477Z,99854.39
2018-05-27T00:29:36.715Z,99858.09
2018-05-27T00:30:07.940Z,99855.98
2018-05-27T00:30:39.121Z,99859.59
2018-05-27T00:31:10.553Z,99860.12
2018-05-27T00:31:41.749Z,99860.20
2018-05-27T00:32:12.932Z,99859.11
2018-05-27T00:32:44.121Z,99857.17
2018-05-27T00:33:15.302Z,99860.69
2018-05-27T00:33:46.497Z,99857.13
2018-05-27T00:34:17.725Z,99856.69
2018-05-27T00:34:48.920Z,99856.60
2018-05-27T00:35:20.148Z,99857.13
2018-05-27T00:35:51.324Z,99857.00
2018-05-27T00:36:22.510Z,99853.97
2018-05-27T00:36:53.701Z,99859.23
2018-05-27T00:37:24.885Z,99850.48
2018-05-27T00:37:56.069Z,99857.13
2018-05-27T00:38:27.252Z,99854.50
2018-05-27T00:38:58.437Z,99853.66
2018-05-27T00:39:29.652Z,99852.73
2018-05-27T00:40:00.835Z,99856.83
2018-05-27T00:40:32.053Z,99850.31
2018-05-27T00:41:03.277Z,99855.98
2018-05-27T00:41:34.464Z,99853.53
2018-05-27T00:42:05.644Z,99855.81
2018-05-27T00:42:36.834Z,99853.22
2018-05-27T00:43:08.061Z,99857.97
2018-05-27T00:43:39.243Z,99855.33
2018-05-27T00:44:10.429Z,99855.81
2018-05-27T00:44:41.612Z,99856.83
2018-05-27T00:45:12.792Z,99854.71
2018-05-27T00:45:43.983Z,99851.59
2018-05-27T00:46:15.168Z,99854.45
2018-05-27T00:46:46.358Z,99853.61
2018-05-27T00:47:17.550Z,99856.30
2018-05-27T00:47:48.772Z,99861.26
2018-05-27T00:48:19.947Z,99857.80
2018-05-27T00:48:51.133Z,99857.03
2018-05-27T00:49:22.313Z,99862.31
2018-05-27T00:49:53.578Z,99859.23
2018-05-27T00:50:25.493Z,99859.62
2018-05-27T00:50:56.675Z,99862.80
2018-05-27T00:51:27.857Z,99861.95
2018-05-27T00:51:59.037Z,99868.16
2018-05-27T00:52:30.318Z,99864.69
2018-05-27T00:53:01.502Z,99865.60
2018-05-27T00:53:32.678Z,99867.84
2018-05-27T00:54:03.865Z,99869.25
2018-05-27T00:54:35.046Z,99875.05
2018-05-27T00:55:06.225Z,99868.99
2018-05-27T00:55:37.413Z,99870.79
2018-05-27T00:56:08.608Z,99869.08
2018-05-27T00:56:39.792Z,99869.16
2018-05-27T00:57:10.975Z,99869.25
2018-05-27T00:57:43.426Z,99867.32
2018-05-27T00:58:14.608Z,99874.62
2018-05-27T00:58:45.802Z,99870.95
2018-05-27T00:59:16.990Z,99873.95
2018-05-27T00:59:48.182Z,99871.32
2018-05-27T01:00:19.370Z,99869.25
2018-05-27T01:00:50.554Z,99871.50
2018-05-27T01:01:21.747Z,99871.23
2018-05-27T01:01:52.929Z,99872.99
2018-05-27T01:02:24.165Z,99872.20
2018-05-27T01:02:55.353Z,99873.03
2018-05-27T01:03:26.545Z,99871.36
2018-05-27T01:03:57.732Z,99870.13
2018-05-27T01:04:28.936Z,99873.29
2018-05-27T01:05:00.152Z,99872.14
2018-05-27T01:05:31.357Z,99873.19
2018-05-27T01:06:02.541Z,99870.68
2018-05-27T01:06:33.761Z,99866.33
2018-05-27T01:07:04.944Z,99862.50
2018-05-27T01:07:36.137Z,99866.14
2018-05-27T01:08:07.326Z,99863.59
2018-05-27T01:08:38.512Z,99860.65
2018-05-27T01:09:09.700Z,99861.66
2018-05-27T01:09:40.884Z,99866.56
2018-05-27T01:10:12.876Z,99861.38
2018-05-27T01:10:44.057Z,99863.17
2018-05-27T01:11:15.301Z,99863.22
2018-05-27T01:11:46.548Z,99857.99
2018-05-27T01:12:17.737Z,99860.59
2018-05-27T01:12:48.924Z,99859.31
2018-05-27T01:13:20.106Z,99858.04
2018-05-27T01:13:51.290Z,99856.23
2018-05-27T01:14:22.468Z,99860.62
2018-05-27T01:14:53.653Z,99855.80
2018-05-27T01:15:24.837Z,99858.83
2018-05-27T01:15:56.025Z,99854.40
2018-05-27T01:16:27.249Z,99855.19
2018-05-27T01:16:58.432Z,99856.55
2018-05-27T01:17:29.650Z,99853.95
2018-05-27T01:18:00.830Z,99855.19
2018-05-27T01:18:32.044Z,99852.95
2018-05-27T01:19:03.233Z,99855.50
2018-05-27T01:19:34.410Z,99853.27
2018-05-27T01:20:05.593Z,99861.48
2018-05-27T01:20:36.772Z,99860.95
2018-05-27T01:21:07.954Z,99864.83
2018-05-27T01:21:39.146Z,99867.77
2018-05-27T01:22:10.404Z,99862.34
2018-05-27T01:22:41.592Z,99864.41
2018-05-27T01:23:12.783Z,99861.33
2018-05-27T01:23:43.964Z,99864.33
2018-05-27T01:24:15.140Z,99865.64
2018-05-27T01:24:46.321Z,99862.04
2018-05-27T01:25:17.498Z,99863.84
2018-05-27T01:25:48.684Z,99864.72
2018-05-27T01:26:19.873Z,99860.77
2018-05-27T01:26:51.124Z,99855.18
2018-05-27T01:27:22.943Z,99855.61
2018-05-27T01:27:55.033Z,99856.81
2018-05-27T01:28:26.216Z,99853.73
2018-05-27T01:28:57.397Z,99855.45
2018-05-27T01:29:28.573Z,99857.99
2018-05-27T01:29:59.749Z,99857.74
2018-05-27T01:30:30.960Z,99853.83
2018-05-27T01:31:02.145Z,99856.91
2018-05-27T01:31:33.338Z,99852.99
2018-05-27T01:32:04.552Z,99852.91
2018-05-27T01:32:35.737Z,99856.91
2018-05-27T01:33:06.920Z,99855.50
2018-05-27T01:33:38.100Z,99859.81
2018-05-27T01:34:09.287Z,99858.05
2018-05-27T01:34:40.460Z,99856.64
2018-05-27T01:35:11.643Z,99853.57
2018-05-27T01:35:42.857Z,99853.73
2018-05-27T01:36:14.046Z,99855.59
2018-05-27T01:36:45.234Z,99857.87
2018-05-27T01:37:16.458Z,99860.20
2018-05-27T01:37:47.642Z,99857.99
2018-05-27T01:38:18.833Z,99855.05
2018-05-27T01:38:50.041Z,99852.98
2018-05-27T01:39:21.221Z,99849.95
2018-05-27T01:39:52.452Z,99851.75
2018-05-27T01:40:23.645Z,99853.52
2018-05-27T01:40:54.849Z,99852.67
2018-05-27T01:41:26.040Z,99854.39
2018-05-27T01:41:57.221Z,99850.83
2018-05-27T01:42:28.408Z,99852.15
2018-05-27T01:42:59.605Z,99853.91
2018-05-27T01:43:30.805Z,99852.71
2018-05-27T01:44:03.217Z,99858.95
2018-05-27T01:44:34.967Z,99851.61
2018-05-27T01:45:06.160Z,99852.80
2018-05-27T01:45:37.402Z,99849.77
2018-05-27T01:46:08.644Z,99854.99
2018-05-27T01:46:39.826Z,99852.31
2018-05-27T01:47:11.005Z,99851.80
2018-05-27T01:47:42.265Z,99851.39
2018-05-27T01:48:13.445Z,99854.43
2018-05-27T01:48:45.253Z,99854.95
2018-05-27T01:49:16.429Z,99853.98
2018-05-27T01:49:47.612Z,99859.66
2018-05-27T01:50:18.792Z,99855.66
2018-05-27T01:50:49.994Z,99859.13
2018-05-27T01:51:21.181Z,99859.53
2018-05-27T01:51:52.364Z,99859.00
2018-05-27T01:52:23.544Z,99854.96
2018-05-27T01:52:54.771Z,99857.91
2018-05-27T01:53:25.957Z,99850.84
2018-05-27T01:53:57.141Z,99852.47
2018-05-27T01:54:28.321Z,99856.73
2018-05-27T01:54:59.502Z,99857.22
2018-05-27T01:55:30.684Z,99853.79
2018-05-27T01:56:01.869Z,99860.94
2018-05-27T01:56:33.052Z,99860.33
2018-05-27T01:57:04.270Z,99857.38
2018-05-27T01:57:35.454Z,99860.93
2018-05-27T01:58:06.633Z,99855.30
2018-05-27T01:58:37.813Z,99862.94
2018-05-27T01:59:09.051Z,99864.30
2018-05-27T01:59:40.236Z,99807.95
2018-05-27T02:00:11.423Z,99856.25
2018-05-27T02:00:42.613Z,99861.00
2018-05-27T02:01:13.798Z,99863.24
2018-05-27T02:01:44.989Z,99863.28
2018-05-27T02:02:16.185Z,99865.64
2018-05-27T02:02:47.371Z,99866.16
2018-05-27T02:03:18.560Z,99869.20
2018-05-27T02:03:49.751Z,99868.41
2018-05-27T02:04:20.987Z,99861.77
2018-05-27T02:04:52.169Z,99865.38
2018-05-27T02:05:23.357Z,99866.73
2018-05-27T02:05:54.578Z,99872.45
2018-05-27T02:06:25.759Z,99860.67
2018-05-27T02:06:56.946Z,99865.14
2018-05-27T02:07:28.145Z,99862.11
2018-05-27T02:07:59.338Z,99864.78
2018-05-27T02:08:30.520Z,99859.56
2018-05-27T02:09:01.705Z,99859.08
2018-05-27T02:09:32.899Z,99858.59
2018-05-27T02:10:04.092Z,99862.91
2018-05-27T02:10:35.306Z,99860.11
2018-05-27T02:11:06.498Z,99859.98
2018-05-27T02:11:37.726Z,99867.00
2018-05-27T02:12:08.909Z,99858.61
2018-05-27T02:12:40.097Z,99858.58
2018-05-27T02:13:11.901Z,99858.89
2018-05-27T02:13:43.091Z,99859.64
2018-05-27T02:14:14.265Z,99860.52
2018-05-27T02:14:45.441Z,99862.36
2018-05-27T02:15:16.634Z,99861.52
2018-05-27T02:15:47.825Z,99864.03
2018-05-27T02:16:19.064Z,99860.52
2018-05-27T02:16:50.244Z,99864.78
2018-05-27T02:17:21.469Z,99865.58
2018-05-27T02:17:52.651Z,99865.84
2018-05-27T02:18:23.822Z,99860.58
2018-05-27T02:18:55.023Z,99858.34
2018-05-27T02:19:26.204Z,99860.53
2018-05-27T02:19:57.395Z,99860.00
2018-05-27T02:20:28.587Z,99860.41
2018-05-27T02:20:59.787Z,99860.23
2018-05-27T02:21:30.965Z,99857.13
2018-05-27T02:22:02.152Z,99856.23
2018-05-27T02:22:33.374Z,99853.73
2018-05-27T02:23:04.549Z,99858.09
2018-05-27T02:23:35.744Z,99865.20
2018-05-27T02:24:06.950Z,99861.24
2018-05-27T02:24:38.138Z,99859.00
2018-05-27T02:25:09.319Z,99858.95
2018-05-27T02:25:40.502Z,99862.04
2018-05-27T02:26:11.680Z,99863.63
2018-05-27T02:26:42.869Z,99859.58
2018-05-27T02:27:14.091Z,99856.55
2018-05-27T02:27:45.289Z,99854.92
2018-05-27T02:28:16.480Z,99862.13
2018-05-27T02:28:47.661Z,99858.70
2018-05-27T02:29:18.851Z,99863.13
2018-05-27T02:29:50.034Z,99859.61
2018-05-27T02:30:21.218Z,99865.68
2018-05-27T02:30:52.441Z,99864.28
2018-05-27T02:31:23.625Z,99860.33
2018-05-27T02:31:54.855Z,99866.91
2018-05-27T02:32:26.041Z,99868.50
2018-05-27T02:32:57.221Z,99865.78
2018-05-27T02:33:28.437Z,99862.66
2018-05-27T02:33:59.620Z,99869.61
2018-05-27T02:34:30.813Z,99865.66
2018-05-27T02:35:02.018Z,99870.00
2018-05-27T02:35:33.213Z,99871.55
2018-05-27T02:36:04.398Z,99872.77
2018-05-27T02:36:35.594Z,99872.69
2018-05-27T02:37:06.781Z,99875.80
2018-05-27T02:37:37.964Z,99876.73
2018-05-27T02:38:09.153Z,99871.54
2018-05-27T02:38:40.413Z,99875.09
2018-05-27T02:39:11.596Z,99873.42
2018-05-27T02:39:42.781Z,99874.39
2018-05-27T02:40:13.962Z,99873.47
2018-05-27T02:40:45.163Z,99868.73
2018-05-27T02:41:16.349Z,99877.64
2018-05-27T02:41:47.537Z,99871.09
2018-05-27T02:42:18.723Z,99871.66
2018-05-27T02:42:49.917Z,99873.94
2018-05-27T02:43:21.100Z,99876.14
2018-05-27T02:43:52.333Z,99873.45
2018-05-27T02:44:23.518Z,99875.61
2018-05-27T02:44:54.732Z,99878.41
2018-05-27T02:45:25.922Z,99877.02
2018-05-27T02:45:57.109Z,99879.65
2018-05-27T02:46:28.317Z,99880.48
2018-05-27T02:46:59.516Z,99879.13
2018-05-27T02:47:30.708Z,99878.20
2018-05-27T02:48:01.942Z,99879.96
2018-05-27T02:48:33.125Z,99879.84
2018-05-27T02:49:04.369Z,99880.67
2018-05-27T02:49:35.556Z,99880.15
2018-05-27T02:50:06.737Z,99879.23
2018-05-27T02:50:37.928Z,99878.34
2018-05-27T02:51:09.125Z,99878.43
2018-05-27T02:51:40.348Z,99877.55
2018-05-27T02:52:11.525Z,99876.59
2018-05-27T02:52:42.710Z,99881.82
2018-05-27T02:53:13.902Z,99878.79
2018-05-27T02:53:45.137Z,99882.34
2018-05-27T02:54:16.328Z,99879.23
2018-05-27T02:54:47.571Z,99881.02
2018-05-27T02:55:18.757Z,99879.63
2018-05-27T02:55:49.937Z,99873.42
2018-05-27T02:56:21.120Z,99877.30
2018-05-27T02:56:52.298Z,99874.19
2018-05-27T02:57:23.517Z,99876.86
2018-05-27T02:57:54.743Z,99875.09
2018-05-27T02:58:25.945Z,99876.81
2018-05-27T02:58:57.129Z,99883.40
2018-05-27T02:59:28.304Z,99878.97
2018-05-27T02:59:59.491Z,99885.08
2018-05-27T03:00:30.681Z,99879.27
2018-05-27T03:01:01.904Z,99874.79
2018-05-27T03:01:33.083Z,99875.58
2018-05-27T03:02:04.261Z,99871.93
2018-05-27T03:02:35.448Z,99875.72
2018-05-27T03:03:06.638Z,99873.00
2018-05-27T03:03:37.818Z,99871.89
2018-05-27T03:04:09.001Z,99867.32
2018-05-27T03:04:40.186Z,99870.23
2018-05-27T03:05:11.373Z,99867.02
2018-05-27T03:05:42.595Z,99869.35
2018-05-27T03:06:13.784Z,99870.02
2018-05-27T03:06:44.978Z,99870.22
2018-05-27T03:07:16.171Z,99871.37
2018-05-27T03:07:47.345Z,99871.77
2018-05-27T03:08:18.525Z,99873.08
2018-05-27T03:08:49.910Z,99869.95
2018-05-27T03:09:21.127Z,99863.80
2018-05-27T03:09:53.933Z,99872.28
2018-05-27T03:10:25.153Z,99872.84
2018-05-27T03:10:56.341Z,99875.27
2018-05-27T03:11:27.529Z,99874.73
2018-05-27T03:11:58.728Z,99875.95
2018-05-27T03:12:29.910Z,99876.75
2018-05-27T03:13:01.093Z,99878.23
2018-05-27T03:13:32.287Z,99879.91
2018-05-27T03:14:03.528Z,99882.19
2018-05-27T03:14:34.740Z,99881.75
2018-05-27T03:15:07.026Z,99881.84
2018-05-27T03:15:38.213Z,99886.98
2018-05-27T03:16:09.401Z,99885.63
2018-05-27T03:16:40.660Z,99887.73
2018-05-27T03:17:11.833Z,99886.19
2018-05-27T03:17:43.057Z,99883.84
2018-05-27T03:18:14.241Z,99884.24
2018-05-27T03:18:45.422Z,99880.14
2018-05-27T03:19:16.616Z,99886.11
2018-05-27T03:19:47.798Z,99883.47
2018-05-27T03:20:19.690Z,99892.28
2018-05-27T03:20:50.930Z,99893.16
2018-05-27T03:21:22.122Z,99890.91
2018-05-27T03:21:53.315Z,99885.20
2018-05-27T03:22:24.497Z,99888.27
2018-05-27T03:22:55.730Z,99889.41
2018-05-27T03:23:26.920Z,99890.27
2018-05-27T03:23:58.109Z,99887.55
2018-05-27T03:24:29.293Z,99888.15
2018-05-27T03:25:00.478Z,99884.00
2018-05-27T03:25:31.661Z,99890.86
2018-05-27T03:26:02.841Z,99887.77
2018-05-27T03:26:34.034Z,99887.78
2018-05-27T03:27:05.225Z,99888.74
2018-05-27T03:27:36.417Z,99887.96
2018-05-27T03:28:07.643Z,99888.50
2018-05-27T03:28:38.839Z,99887.31
2018-05-27T03:29:11.099Z,99886.08
2018-05-27T03:29:42.284Z,99891.02
2018-05-27T03:30:13.464Z,99890.12
2018-05-27T03:30:44.653Z,99885.25
2018-05-27T03:31:15.829Z,99885.34
2018-05-27T03:31:47.060Z,99883.53
2018-05-27T03:32:18.257Z,99884.72
2018-05-27T03:32:49.433Z,99889.32
2018-05-27T03:33:20.623Z,99882.59
2018-05-27T03:33:51.847Z,99888.35
2018-05-27T03:34:23.033Z,99888.15
2018-05-27T03:34:54.223Z,99891.59
2018-05-27T03:35:25.425Z,99887.92
2018-05-27T03:35:56.649Z,99892.41
2018-05-27T03:36:27.839Z,99891.19
2018-05-27T03:36:59.031Z,99893.92
2018-05-27T03:37:30.208Z,99894.84
2018-05-27T03:38:01.410Z,99893.96
2018-05-27T03:38:32.601Z,99894.13
2018-05-27T03:39:03.863Z,99891.70
2018-05-27T03:39:35.064Z,99890.08
2018-05-27T03:40:06.273Z,99896.95
2018-05-27T03:40:37.461Z,99890.16
2018-05-27T03:41:08.662Z,99891.30
2018-05-27T03:41:39.842Z,99888.52
2018-05-27T03:42:11.061Z,99886.08
2018-05-27T03:42:42.506Z,99882.95
2018-05-27T03:43:13.696Z,99886.12
2018-05-27T03:43:44.882Z,99887.73
2018-05-27T03:44:16.071Z,99886.42
2018-05-27T03:44:47.299Z,99890.03
2018-05-27T03:45:19.264Z,99884.81
2018-05-27T03:45:50.445Z,99881.47
2018-05-27T03:46:21.669Z,99884.55
2018-05-27T03:46:53.307Z,99884.51
2018-05-27T03:47:25.562Z,99878.92
2018-05-27T03:47:56.740Z,99886.66
2018-05-27T03:48:27.920Z,99880.27
2018-05-27T03:48:59.111Z,99883.30
2018-05-27T03:49:30.305Z,99882.75
2018-05-27T03:50:01.525Z,99886.28
2018-05-27T03:50:32.732Z,99884.23
2018-05-27T03:51:03.921Z,99889.60
2018-05-27T03:51:35.105Z,99882.91
2018-05-27T03:52:06.292Z,99884.51
2018-05-27T03:52:37.478Z,99881.67
2018-05-27T03:53:08.660Z,99887.65
2018-05-27T03:53:39.848Z,99886.77
2018-05-27T03:54:11.072Z,99882.32
2018-05-27T03:54:42.252Z,99880.46
2018-05-27T03:55:13.437Z,99876.80
2018-05-27T03:55:44.672Z,99880.80
2018-05-27T03:56:15.854Z,99880.88
2018-05-27T03:56:47.033Z,99890.42
2018-05-27T03:57:18.217Z,99885.58
2018-05-27T03:57:49.408Z,99886.01
2018-05-27T03:58:20.588Z,99890.42
2018-05-27T03:58:51.769Z,99892.77
2018-05-27T03:59:22.946Z,99891.92
2018-05-27T03:59:54.137Z,99891.44
2018-05-27T04:00:25.324Z,99889.05
2018-05-27T04:00:56.546Z,99893.01
2018-05-27T04:01:27.733Z,99895.95
2018-05-27T04:01:58.938Z,99894.14
2018-05-27T04:02:30.126Z,99895.55
2018-05-27T04:03:01.319Z,99894.69
2018-05-27T04:03:32.531Z,99896.28
2018-05-27T04:04:03.782Z,99890.00
2018-05-27T04:04:34.982Z,99893.70
2018-05-27T04:05:06.207Z,99891.74
2018-05-27T04:05:37.397Z,99895.92
2018-05-27T04:06:08.591Z,99899.10
2018-05-27T04:06:39.772Z,99901.20
2018-05-27T04:07:11.010Z,99894.81
2018-05-27T04:07:42.210Z,99894.06
2018-05-27T04:08:13.397Z,99894.30
2018-05-27T04:08:44.586Z,99895.42
2018-05-27T04:09:15.780Z,99894.34
2018-05-27T04:09:46.969Z,99890.95
2018-05-27T04:10:18.160Z,99892.97
2018-05-27T04:10:49.353Z,99893.27
2018-05-27T04:11:20.532Z,99889.86
2018-05-27T04:11:51.712Z,99893.50
2018-05-27T04:12:22.941Z,99886.56
2018-05-27T04:12:54.133Z,99883.20
2018-05-27T04:13:25.313Z,99887.75
2018-05-27T04:13:56.507Z,99883.19
2018-05-27T04:14:27.709Z,99888.91
2018-05-27T04:14:58.923Z,99881.20
2018-05-27T04:15:30.115Z,99882.23
2018-05-27T04:16:01.316Z,99881.24
2018-05-27T04:16:32.550Z,99880.26
2018-05-27T04:17:03.756Z,99877.55
2018-05-27T04:17:34.947Z,99882.00
2018-05-27T04:18:06.214Z,99883.02
2018-05-27T04:18:37.404Z,99879.14
2018-05-27T04:19:08.598Z,99879.87
2018-05-27T04:19:39.795Z,99879.83
2018-05-27T04:20:10.972Z,99879.13
2018-05-27T04:20:42.158Z,99882.98
2018-05-27T04:21:13.361Z,99881.91
2018-05-27T04:21:44.547Z,99882.09
2018-05-27T04:22:15.729Z,99881.11
2018-05-27T04:22:46.905Z,99882.72
2018-05-27T04:23:18.181Z,99882.58
2018-05-27T04:23:49.409Z,99880.94
2018-05-27T04:24:20.602Z,99880.08
2018-05-27T04:24:51.792Z,99837.45
2018-05-27T04:25:22.977Z,99883.61
2018-05-27T04:25:54.170Z,99882.91
2018-05-27T04:26:25.353Z,99882.34
2018-05-27T04:26:56.543Z,99882.47
2018-05-27T04:27:27.757Z,99879.77
2018-05-27T04:27:58.948Z,99885.89
2018-05-27T04:28:30.207Z,99882.80
2018-05-27T04:29:01.431Z,99887.37
2018-05-27T04:29:32.621Z,99890.78
2018-05-27T04:30:03.812Z,99887.91
2018-05-27T04:30:35.000Z,99892.63
2018-05-27T04:31:06.184Z,99893.43
2018-05-27T04:31:37.368Z,99885.39
2018-05-27T04:32:08.552Z,99884.93
2018-05-27T04:32:39.736Z,99884.78
2018-05-27T04:33:10.930Z,99885.17
2018-05-27T04:33:42.113Z,99881.36
2018-05-27T04:34:13.350Z,99886.99
2018-05-27T04:34:44.561Z,99882.06
2018-05-27T04:35:15.741Z,99884.02
2018-05-27T04:35:46.969Z,99875.88
2018-05-27T04:36:18.150Z,99877.09
2018-05-27T04:36:49.342Z,99876.11
2018-05-27T04:37:20.538Z,99877.44
2018-05-27T04:37:51.725Z,99875.38
2018-05-27T04:38:22.973Z,99875.23
2018-05-27T04:38:54.154Z,99877.73
2018-05-27T04:39:25.337Z,99875.18
2018-05-27T04:39:56.516Z,99879.92
2018-05-27T04:40:27.713Z,99881.89
2018-05-27T04:40:58.909Z,99879.30
2018-05-27T04:41:30.104Z,99885.58
2018-05-27T04:42:01.292Z,99882.31
2018-05-27T04:42:32.485Z,99882.86
2018-05-27T04:43:03.721Z,99883.90
2018-05-27T04:43:34.914Z,99878.05
2018-05-27T04:44:06.098Z,99881.92
2018-05-27T04:44:37.278Z,99878.68
2018-05-27T04:45:08.457Z,99879.34
2018-05-27T04:45:39.638Z,99879.63
2018-05-27T04:46:10.821Z,99881.25
2018-05-27T04:46:42.009Z,99877.22
2018-05-27T04:47:13.199Z,99881.63
2018-05-27T04:47:44.385Z,99891.69
2018-05-27T04:48:15.625Z,99885.32
2018-05-27T04:48:46.809Z,99884.13
2018-05-27T04:49:17.992Z,99884.41
2018-05-27T04:49:49.176Z,99881.77
2018-05-27T04:50:20.373Z,99889.44
2018-05-27T04:50:51.565Z,99890.95
2018-05-27T04:51:22.765Z,99888.81
2018-05-27T04:51:53.977Z,99889.64
2018-05-27T04:52:25.509Z,99885.98
2018-05-27T04:52:57.011Z,99891.39
2018-05-27T04:53:28.292Z,99894.66
2018-05-27T04:53:59.653Z,99892.63
2018-05-27T04:54:30.903Z,99891.38
2018-05-27T04:55:02.117Z,99890.95
2018-05-27T04:55:33.316Z,99892.17
2018-05-27T04:56:04.501Z,99888.14
2018-05-27T04:56:35.691Z,99887.80
2018-05-27T04:57:06.880Z,99891.08
2018-05-27T04:57:38.069Z,99884.89
2018-05-27T04:58:09.266Z,99888.87
2018-05-27T04:58:40.508Z,99888.87
2018-05-27T04:59:11.698Z,99891.80
2018-05-27T04:59:42.896Z,99894.96
2018-05-27T05:00:14.099Z,99891.16
2018-05-27T05:00:45.285Z,99894.75
2018-05-27T05:01:16.474Z,99892.94
2018-05-27T05:01:47.665Z,99891.97
2018-05-27T05:02:18.893Z,99896.30
2018-05-27T05:02:50.080Z,99888.25
2018-05-27T05:03:21.280Z,99894.02
2018-05-27T05:03:52.469Z,99894.63
2018-05-27T05:04:23.681Z,99891.44
2018-05-27T05:04:54.869Z,99898.30
2018-05-27T05:05:26.056Z,99891.26
2018-05-27T05:05:57.245Z,99885.20
2018-05-27T05:06:28.434Z,99890.17
2018-05-27T05:06:59.668Z,99890.80
2018-05-27T05:07:30.866Z,99888.80
2018-05-27T05:08:02.065Z,99885.82
2018-05-27T05:08:33.259Z,99883.52
2018-05-27T05:09:04.449Z,99888.25
2018-05-27T05:09:35.653Z,99888.01
2018-05-27T05:10:06.857Z,99887.14
2018-05-27T05:10:38.050Z,99888.08
2018-05-27T05:11:09.291Z,99884.41
2018-05-27T05:11:40.513Z,99890.26
2018-05-27T05:12:11.721Z,99885.82
2018-05-27T05:12:42.905Z,99883.95
2018-05-27T05:13:14.091Z,99888.02
2018-05-27T05:13:45.300Z,99888.84
2018-05-27T05:14:16.497Z,99883.84
2018-05-27T05:14:47.733Z,99885.58
2018-05-27T05:15:18.921Z,99884.89
2018-05-27T05:15:50.108Z,99886.05
2018-05-27T05:16:21.357Z,99880.05
2018-05-27T05:16:52.566Z,99883.99
2018-05-27T05:17:23.768Z,99887.47
2018-05-27T05:17:54.970Z,99886.90
2018-05-27T05:18:26.165Z,99889.20
2018-05-27T05:18:57.360Z,99879.02
2018-05-27T05:19:28.554Z,99879.59
2018-05-27T05:19:59.761Z,99874.66
2018-05-27T05:20:30.953Z,99879.13
2018-05-27T05:21:02.153Z,99878.77
2018-05-27T05:21:33.370Z,99873.43
2018-05-27T05:22:04.612Z,99872.82
2018-05-27T05:22:35.783Z,99880.58
2018-05-27T05:23:07.093Z,99877.09
2018-05-27T05:23:38.285Z,99879.92
2018-05-27T05:24:09.467Z,99876.95
2018-05-27T05:24:40.644Z,99874.91
2018-05-27T05:25:11.825Z,99875.12
2018-05-27T05:25:43.013Z,99871.50
2018-05-27T05:26:14.197Z,99874.66
2018-05-27T05:26:45.373Z,99878.45
2018-05-27T05:27:16.553Z,99875.47
2018-05-27T05:27:47.784Z,99874.44
2018-05-27T05:28:18.979Z,99881.25
2018-05-27T05:28:50.153Z,99879.13
2018-05-27T05:29:21.342Z,99882.50
2018-05-27T05:29:52.520Z,99879.10
2018-05-27T05:30:23.704Z,99886.16
2018-05-27T05:30:54.885Z,99888.92
2018-05-27T05:31:26.067Z,99884.31
2018-05-27T05:31:57.244Z,99890.34
2018-05-27T05:32:28.421Z,99884.20
2018-05-27T05:32:59.637Z,99890.42
2018-05-27T05:33:30.826Z,99886.81
2018-05-27T05:34:02.038Z,99883.97
2018-05-27T05:34:33.217Z,99886.53
2018-05-27T05:35:04.393Z,99888.30
2018-05-27T05:35:35.564Z,99887.89
2018-05-27T05:36:06.733Z,99889.23
2018-05-27T05:36:37.905Z,99887.19
2018-05-27T05:37:09.141Z,99890.36
2018-05-27T05:37:40.318Z,99891.69
2018-05-27T05:38:11.544Z,99892.38
2018-05-27T05:38:42.772Z,99892.17
2018-05-27T05:39:13.948Z,99858.47
2018-05-27T05:39:45.124Z,99894.23
2018-05-27T05:40:16.320Z,99891.82
2018-05-27T05:40:47.504Z,99898.47
2018-05-27T05:41:18.734Z,99892.77
2018-05-27T05:41:49.909Z,99896.13
2018-05-27T05:42:21.091Z,99895.78
2018-05-27T05:42:52.269Z,99894.94
2018-05-27T05:43:23.484Z,99895.40
2018-05-27T05:43:54.665Z,99895.34
2018-05-27T05:44:25.893Z,99895.53
2018-05-27T05:44:57.105Z,99888.50
2018-05-27T05:45:28.281Z,99899.44
2018-05-27T05:45:59.464Z,99896.58
2018-05-27T05:46:30.646Z,99902.53
2018-05-27T05:47:01.837Z,99903.03
2018-05-27T05:47:33.018Z,99899.12
2018-05-27T05:48:04.209Z,99894.42
2018-05-27T05:48:35.385Z,99899.64
2018-05-27T05:49:06.568Z,99895.56
2018-05-27T05:49:37.794Z,99897.17
2018-05-27T05:50:08.984Z,99904.39
2018-05-27T05:50:40.156Z,99902.52
2018-05-27T05:51:11.338Z,99902.52
2018-05-27T05:51:42.534Z,99901.70
2018-05-27T05:52:13.712Z,99897.71
2018-05-27T05:52:44.889Z,99896.29
2018-05-27T05:53:16.069Z,99899.23
2018-05-27T05:53:47.260Z,99901.45
2018-05-27T05:54:18.445Z,99901.25
2018-05-27T05:54:49.666Z,99893.91
2018-05-27T05:55:20.881Z,99899.12
2018-05-27T05:55:52.084Z,99899.36
2018-05-27T05:56:23.268Z,99899.81
2018-05-27T05:56:54.463Z,99904.36
2018-05-27T05:57:25.657Z,99903.59
2018-05-27T05:57:56.845Z,99900.88
2018-05-27T05:58:28.029Z,99901.70
2018-05-27T05:58:59.216Z,99902.30
2018-05-27T05:59:30.396Z,99902.67
2018-05-27T06:00:01.627Z,99900.66
2018-05-27T06:00:32.812Z,99905.34
2018-05-27T06:01:03.991Z,99906.30
2018-05-27T06:01:35.169Z,99904.08
2018-05-27T06:02:06.458Z,99909.63
2018-05-27T06:02:37.646Z,99907.95
2018-05-27T06:03:08.831Z,99905.73
2018-05-27T06:03:40.020Z,99909.27
2018-05-27T06:04:11.201Z,99905.19
2018-05-27T06:04:42.386Z,99900.87
2018-05-27T06:05:13.616Z,99905.21
2018-05-27T06:05:44.797Z,99903.65
2018-05-27T06:06:15.983Z,99895.47
2018-05-27T06:06:47.164Z,99898.72